sensor_id;sensor_type;location;lat;lon;timestamp;P1;durP1;ratioP1;P2;durP2;ratioP2
65581;SDS011;52231;40.090;18.348;2022-10-01T00:01:08;9.57;;;4.78;;
65581;SDS011;52231;40.090;18.348;2022-10-01T00:03:41;10.85;;;5.28;;
65581;SDS011;52231;40.090;18.348;2022-10-01T00:06:14;12.70;;;5.10;;
65581;SDS011;52231;40.090;18.348;2022-10-01T00:08:50;12.18;;;5.20;;
65581;SDS011;52231;40.090;18.348;2022-10-01T00:11:20;14.35;;;5.30;;
65581;SDS011;52231;40.090;18.348;2022-10-01T00:13:51;8.23;;;4.40;;
65581;SDS011;52231;40.090;18.348;2022-10-01T00:16:21;14.05;;;4.72;;
65581;SDS011;52231;40.090;18.348;2022-10-01T00:18:51;12.23;;;4.25;;
65581;SDS011;52231;40.090;18.348;2022-10-01T00:21:24;11.02;;;4.43;;
65581;SDS011;52231;40.090;18.348;2022-10-01T00:23:55;11.40;;;3.90;;
65581;SDS011;52231;40.090;18.348;2022-10-01T00:26:29;9.02;;;3.80;;
65581;SDS011;52231;40.090;18.348;2022-10-01T00:29:03;10.35;;;3.50;;
65581;SDS011;52231;40.090;18.348;2022-10-01T00:31:33;8.23;;;3.20;;
65581;SDS011;52231;40.090;18.348;2022-10-01T00:34:01;10.18;;;3.40;;
65581;SDS011;52231;40.090;18.348;2022-10-01T00:36:48;9.48;;;3.67;;
65581;SDS011;52231;40.090;18.348;2022-10-01T00:39:35;10.60;;;3.85;;
65581;SDS011;52231;40.090;18.348;2022-10-01T00:42:12;12.25;;;4.47;;
65581;SDS011;52231;40.090;18.348;2022-10-01T00:45:03;9.35;;;3.83;;
65581;SDS011;52231;40.090;18.348;2022-10-01T00:47:35;9.23;;;4.40;;
65581;SDS011;52231;40.090;18.348;2022-10-01T00:50:14;12.73;;;4.25;;
65581;SDS011;52231;40.090;18.348;2022-10-01T00:52:44;13.10;;;4.13;;
65581;SDS011;52231;40.090;18.348;2022-10-01T00:55:19;10.15;;;3.78;;
65581;SDS011;52231;40.090;18.348;2022-10-01T00:57:54;13.05;;;3.85;;
65581;SDS011;52231;40.090;18.348;2022-10-01T01:00:23;9.77;;;3.90;;
65581;SDS011;52231;40.090;18.348;2022-10-01T01:02:51;10.45;;;3.80;;
65581;SDS011;52231;40.090;18.348;2022-10-01T01:05:19;11.32;;;3.83;;
65581;SDS011;52231;40.090;18.348;2022-10-01T01:07:49;12.02;;;4.15;;
65581;SDS011;52231;40.090;18.348;2022-10-01T01:10:23;12.07;;;3.97;;
65581;SDS011;52231;40.090;18.348;2022-10-01T01:29:41;11.07;;;4.95;;
65581;SDS011;52231;40.090;18.348;2022-10-01T01:32:23;13.45;;;4.40;;
65581;SDS011;52231;40.090;18.348;2022-10-01T01:34:57;17.73;;;4.97;;
65581;SDS011;52231;40.090;18.348;2022-10-01T01:37:29;12.55;;;5.20;;
65581;SDS011;52231;40.090;18.348;2022-10-01T01:40:04;11.95;;;4.68;;
65581;SDS011;52231;40.090;18.348;2022-10-01T01:42:39;12.77;;;4.70;;
65581;SDS011;52231;40.090;18.348;2022-10-01T01:45:28;14.05;;;3.72;;
65581;SDS011;52231;40.090;18.348;2022-10-01T01:47:59;10.95;;;3.80;;
65581;SDS011;52231;40.090;18.348;2022-10-01T01:50:29;8.00;;;3.22;;
65581;SDS011;52231;40.090;18.348;2022-10-01T01:53:00;9.68;;;3.35;;
65581;SDS011;52231;40.090;18.348;2022-10-01T01:55:29;8.60;;;2.95;;
65581;SDS011;52231;40.090;18.348;2022-10-01T01:57:58;10.77;;;2.80;;
65581;SDS011;52231;40.090;18.348;2022-10-01T02:00:27;7.10;;;2.80;;
65581;SDS011;52231;40.090;18.348;2022-10-01T02:02:56;7.43;;;2.50;;
65581;SDS011;52231;40.090;18.348;2022-10-01T02:05:26;7.80;;;2.70;;
65581;SDS011;52231;40.090;18.348;2022-10-01T02:08:05;8.35;;;2.22;;
65581;SDS011;52231;40.090;18.348;2022-10-01T02:16:49;9.05;;;2.35;;
65581;SDS011;52231;40.090;18.348;2022-10-01T02:19:25;8.65;;;2.55;;
65581;SDS011;52231;40.090;18.348;2022-10-01T02:22:15;9.43;;;2.72;;
65581;SDS011;52231;40.090;18.348;2022-10-01T02:27:35;10.70;;;2.83;;
65581;SDS011;52231;40.090;18.348;2022-10-01T02:30:07;10.13;;;2.80;;
65581;SDS011;52231;40.090;18.348;2022-10-01T02:32:38;6.38;;;2.70;;
65581;SDS011;52231;40.090;18.348;2022-10-01T02:35:10;9.00;;;2.30;;
65581;SDS011;52231;40.090;18.348;2022-10-01T02:37:43;8.52;;;3.08;;
65581;SDS011;52231;40.090;18.348;2022-10-01T02:40:34;7.35;;;2.60;;
65581;SDS011;52231;40.090;18.348;2022-10-01T02:43:17;9.98;;;2.85;;
65581;SDS011;52231;40.090;18.348;2022-10-01T02:45:51;10.20;;;2.58;;
65581;SDS011;52231;40.090;18.348;2022-10-01T02:48:24;7.85;;;2.60;;
65581;SDS011;52231;40.090;18.348;2022-10-01T02:50:56;12.15;;;2.95;;
65581;SDS011;52231;40.090;18.348;2022-10-01T02:53:34;9.05;;;2.60;;
65581;SDS011;52231;40.090;18.348;2022-10-01T02:56:08;9.70;;;2.60;;
65581;SDS011;52231;40.090;18.348;2022-10-01T02:58:38;12.10;;;2.75;;
65581;SDS011;52231;40.090;18.348;2022-10-01T03:01:07;9.88;;;2.72;;
65581;SDS011;52231;40.090;18.348;2022-10-01T03:03:35;8.40;;;2.78;;
65581;SDS011;52231;40.090;18.348;2022-10-01T03:06:05;8.93;;;2.88;;
65581;SDS011;52231;40.090;18.348;2022-10-01T03:08:33;9.85;;;2.67;;
65581;SDS011;52231;40.090;18.348;2022-10-01T03:11:01;6.88;;;2.50;;
65581;SDS011;52231;40.090;18.348;2022-10-01T03:13:29;5.97;;;2.58;;
65581;SDS011;52231;40.090;18.348;2022-10-01T03:16:00;11.65;;;2.72;;
65581;SDS011;52231;40.090;18.348;2022-10-01T03:18:29;7.40;;;2.85;;
65581;SDS011;52231;40.090;18.348;2022-10-01T03:20:57;9.75;;;3.08;;
65581;SDS011;52231;40.090;18.348;2022-10-01T03:23:25;7.50;;;3.03;;
65581;SDS011;52231;40.090;18.348;2022-10-01T03:25:53;10.15;;;3.60;;
65581;SDS011;52231;40.090;18.348;2022-10-01T03:28:21;8.40;;;2.92;;
65581;SDS011;52231;40.090;18.348;2022-10-01T03:30:49;7.03;;;2.97;;
65581;SDS011;52231;40.090;18.348;2022-10-01T03:33:17;8.48;;;3.00;;
65581;SDS011;52231;40.090;18.348;2022-10-01T03:35:45;10.15;;;3.28;;
65581;SDS011;52231;40.090;18.348;2022-10-01T03:38:14;8.63;;;2.95;;
65581;SDS011;52231;40.090;18.348;2022-10-01T03:40:43;7.30;;;3.00;;
65581;SDS011;52231;40.090;18.348;2022-10-01T03:43:12;7.47;;;3.25;;
65581;SDS011;52231;40.090;18.348;2022-10-01T03:45:41;10.85;;;3.38;;
65581;SDS011;52231;40.090;18.348;2022-10-01T03:50:37;8.23;;;3.00;;
65581;SDS011;52231;40.090;18.348;2022-10-01T03:53:05;8.32;;;3.50;;
65581;SDS011;52231;40.090;18.348;2022-10-01T03:55:33;8.23;;;3.05;;
65581;SDS011;52231;40.090;18.348;2022-10-01T03:58:01;7.50;;;3.00;;
65581;SDS011;52231;40.090;18.348;2022-10-01T04:00:29;8.32;;;3.30;;
65581;SDS011;52231;40.090;18.348;2022-10-01T04:02:57;10.13;;;3.10;;
65581;SDS011;52231;40.090;18.348;2022-10-01T04:05:25;15.43;;;3.25;;
65581;SDS011;52231;40.090;18.348;2022-10-01T04:07:54;9.05;;;2.45;;
65581;SDS011;52231;40.090;18.348;2022-10-01T04:10:22;8.77;;;3.20;;
65581;SDS011;52231;40.090;18.348;2022-10-01T04:12:53;11.75;;;3.40;;
65581;SDS011;52231;40.090;18.348;2022-10-01T04:15:22;9.93;;;3.28;;
65581;SDS011;52231;40.090;18.348;2022-10-01T04:17:51;9.63;;;3.45;;
65581;SDS011;52231;40.090;18.348;2022-10-01T04:20:19;9.35;;;3.42;;
65581;SDS011;52231;40.090;18.348;2022-10-01T04:22:48;11.75;;;3.35;;
65581;SDS011;52231;40.090;18.348;2022-10-01T04:25:16;6.88;;;2.85;;
65581;SDS011;52231;40.090;18.348;2022-10-01T04:27:57;10.30;;;3.05;;
65581;SDS011;52231;40.090;18.348;2022-10-01T04:30:31;8.65;;;2.67;;
65581;SDS011;52231;40.090;18.348;2022-10-01T04:33:01;7.18;;;2.95;;
65581;SDS011;52231;40.090;18.348;2022-10-01T04:35:30;11.10;;;2.90;;
65581;SDS011;52231;40.090;18.348;2022-10-01T04:38:01;12.82;;;3.13;;
65581;SDS011;52231;40.090;18.348;2022-10-01T04:40:36;14.20;;;3.22;;
65581;SDS011;52231;40.090;18.348;2022-10-01T04:43:23;12.60;;;3.20;;
65581;SDS011;52231;40.090;18.348;2022-10-01T04:45:51;11.63;;;3.35;;
65581;SDS011;52231;40.090;18.348;2022-10-01T04:48:22;10.50;;;3.85;;
65581;SDS011;52231;40.090;18.348;2022-10-01T04:50:57;16.15;;;3.15;;
65581;SDS011;52231;40.090;18.348;2022-10-01T04:53:30;10.13;;;2.72;;
65581;SDS011;52231;40.090;18.348;2022-10-01T04:58:26;7.25;;;2.42;;
65581;SDS011;52231;40.090;18.348;2022-10-01T05:00:54;8.65;;;2.42;;
65581;SDS011;52231;40.090;18.348;2022-10-01T05:03:24;7.90;;;2.63;;
65581;SDS011;52231;40.090;18.348;2022-10-01T05:05:52;7.63;;;2.67;;
65581;SDS011;52231;40.090;18.348;2022-10-01T05:08:20;6.25;;;2.20;;
65581;SDS011;52231;40.090;18.348;2022-10-01T05:10:50;3.97;;;2.13;;
65581;SDS011;52231;40.090;18.348;2022-10-01T05:13:19;9.05;;;2.42;;
65581;SDS011;52231;40.090;18.348;2022-10-01T05:15:47;9.48;;;2.72;;
65581;SDS011;52231;40.090;18.348;2022-10-01T05:18:18;10.15;;;3.00;;
65581;SDS011;52231;40.090;18.348;2022-10-01T05:20:46;8.60;;;2.97;;
65581;SDS011;52231;40.090;18.348;2022-10-01T05:23:16;7.50;;;2.75;;
65581;SDS011;52231;40.090;18.348;2022-10-01T05:25:45;7.93;;;3.15;;
65581;SDS011;52231;40.090;18.348;2022-10-01T05:28:13;9.93;;;2.60;;
65581;SDS011;52231;40.090;18.348;2022-10-01T05:30:45;13.18;;;3.00;;
65581;SDS011;52231;40.090;18.348;2022-10-01T05:33:15;10.98;;;3.00;;
65581;SDS011;52231;40.090;18.348;2022-10-01T05:38:11;8.68;;;3.08;;
65581;SDS011;52231;40.090;18.348;2022-10-01T05:40:39;12.48;;;3.55;;
65581;SDS011;52231;40.090;18.348;2022-10-01T05:43:12;11.73;;;3.63;;
65581;SDS011;52231;40.090;18.348;2022-10-01T05:45:45;9.38;;;3.88;;
65581;SDS011;52231;40.090;18.348;2022-10-01T05:48:13;13.20;;;4.15;;
65581;SDS011;52231;40.090;18.348;2022-10-01T05:50:41;12.57;;;4.18;;
65581;SDS011;52231;40.090;18.348;2022-10-01T05:53:10;12.55;;;4.20;;
65581;SDS011;52231;40.090;18.348;2022-10-01T05:55:42;9.80;;;3.83;;
65581;SDS011;52231;40.090;18.348;2022-10-01T05:58:11;8.70;;;4.00;;
65581;SDS011;52231;40.090;18.348;2022-10-01T06:00:41;12.02;;;4.22;;
65581;SDS011;52231;40.090;18.348;2022-10-01T06:03:12;9.77;;;3.83;;
65581;SDS011;52231;40.090;18.348;2022-10-01T06:05:42;11.85;;;4.65;;
65581;SDS011;52231;40.090;18.348;2022-10-01T06:08:10;11.70;;;3.97;;
65581;SDS011;52231;40.090;18.348;2022-10-01T06:10:39;11.15;;;3.88;;
65581;SDS011;52231;40.090;18.348;2022-10-01T06:13:08;10.13;;;3.47;;
65581;SDS011;52231;40.090;18.348;2022-10-01T06:15:37;10.15;;;3.30;;
65581;SDS011;52231;40.090;18.348;2022-10-01T06:18:06;11.27;;;3.70;;
65581;SDS011;52231;40.090;18.348;2022-10-01T06:20:35;6.75;;;2.90;;
65581;SDS011;52231;40.090;18.348;2022-10-01T06:23:05;8.85;;;2.90;;
65581;SDS011;52231;40.090;18.348;2022-10-01T06:25:37;8.57;;;2.95;;
65581;SDS011;52231;40.090;18.348;2022-10-01T06:28:07;7.40;;;2.63;;
65581;SDS011;52231;40.090;18.348;2022-10-01T06:30:38;7.60;;;2.53;;
65581;SDS011;52231;40.090;18.348;2022-10-01T06:33:11;6.75;;;2.60;;
65581;SDS011;52231;40.090;18.348;2022-10-01T06:35:42;5.75;;;2.60;;
65581;SDS011;52231;40.090;18.348;2022-10-01T06:38:15;10.10;;;2.78;;
65581;SDS011;52231;40.090;18.348;2022-10-01T06:40:53;8.77;;;2.45;;
65581;SDS011;52231;40.090;18.348;2022-10-01T06:43:26;7.18;;;2.60;;
65581;SDS011;52231;40.090;18.348;2022-10-01T06:45:59;7.28;;;2.33;;
65581;SDS011;52231;40.090;18.348;2022-10-01T06:48:29;4.85;;;2.10;;
65581;SDS011;52231;40.090;18.348;2022-10-01T06:50:57;5.38;;;2.03;;
65581;SDS011;52231;40.090;18.348;2022-10-01T06:53:26;5.25;;;2.20;;
65581;SDS011;52231;40.090;18.348;2022-10-01T06:55:55;6.65;;;2.20;;
65581;SDS011;52231;40.090;18.348;2022-10-01T06:58:23;7.95;;;2.47;;
65581;SDS011;52231;40.090;18.348;2022-10-01T07:00:59;6.03;;;2.00;;
65581;SDS011;52231;40.090;18.348;2022-10-01T07:03:28;4.50;;;2.40;;
65581;SDS011;52231;40.090;18.348;2022-10-01T07:06:03;8.30;;;2.22;;
65581;SDS011;52231;40.090;18.348;2022-10-01T07:08:34;6.45;;;2.10;;
65581;SDS011;52231;40.090;18.348;2022-10-01T07:11:05;6.75;;;2.17;;
65581;SDS011;52231;40.090;18.348;2022-10-01T07:13:34;6.03;;;2.00;;
65581;SDS011;52231;40.090;18.348;2022-10-01T07:18:31;7.30;;;1.88;;
65581;SDS011;52231;40.090;18.348;2022-10-01T07:21:03;4.85;;;1.80;;
65581;SDS011;52231;40.090;18.348;2022-10-01T07:23:31;6.88;;;2.00;;
65581;SDS011;52231;40.090;18.348;2022-10-01T07:26:02;4.28;;;2.00;;
65581;SDS011;52231;40.090;18.348;2022-10-01T07:28:32;7.05;;;2.08;;
65581;SDS011;52231;40.090;18.348;2022-10-01T07:31:02;13.98;;;2.35;;
65581;SDS011;52231;40.090;18.348;2022-10-01T07:33:38;8.55;;;1.90;;
65581;SDS011;52231;40.090;18.348;2022-10-01T07:36:10;7.40;;;1.85;;
65581;SDS011;52231;40.090;18.348;2022-10-01T07:38:39;8.98;;;2.15;;
65581;SDS011;52231;40.090;18.348;2022-10-01T07:41:09;5.60;;;2.20;;
65581;SDS011;52231;40.090;18.348;2022-10-01T07:43:38;8.60;;;2.75;;
65581;SDS011;52231;40.090;18.348;2022-10-01T07:46:27;8.80;;;2.58;;
65581;SDS011;52231;40.090;18.348;2022-10-01T07:48:58;8.02;;;2.35;;
65581;SDS011;52231;40.090;18.348;2022-10-01T07:51:26;8.02;;;2.42;;
65581;SDS011;52231;40.090;18.348;2022-10-01T07:53:55;9.65;;;3.10;;
65581;SDS011;52231;40.090;18.348;2022-10-01T07:56:23;9.18;;;2.60;;
65581;SDS011;52231;40.090;18.348;2022-10-01T07:58:57;12.55;;;2.55;;
65581;SDS011;52231;40.090;18.348;2022-10-01T08:04:19;10.68;;;3.20;;
65581;SDS011;52231;40.090;18.348;2022-10-01T08:07:25;8.98;;;3.00;;
65581;SDS011;52231;40.090;18.348;2022-10-01T08:09:54;11.45;;;3.28;;
65581;SDS011;52231;40.090;18.348;2022-10-01T08:12:24;12.85;;;3.40;;
65581;SDS011;52231;40.090;18.348;2022-10-01T08:14:56;14.20;;;3.00;;
65581;SDS011;52231;40.090;18.348;2022-10-01T08:17:25;8.55;;;2.72;;
65581;SDS011;52231;40.090;18.348;2022-10-01T08:19:55;7.45;;;2.50;;
65581;SDS011;52231;40.090;18.348;2022-10-01T08:24:52;6.85;;;2.33;;
65581;SDS011;52231;40.090;18.348;2022-10-01T08:27:22;9.50;;;2.60;;
65581;SDS011;52231;40.090;18.348;2022-10-01T08:29:51;8.77;;;2.60;;
65581;SDS011;52231;40.090;18.348;2022-10-01T08:32:20;7.55;;;2.55;;
65581;SDS011;52231;40.090;18.348;2022-10-01T08:34:51;10.60;;;2.90;;
65581;SDS011;52231;40.090;18.348;2022-10-01T08:37:23;10.80;;;3.10;;
65581;SDS011;52231;40.090;18.348;2022-10-01T08:39:54;6.70;;;2.55;;
65581;SDS011;52231;40.090;18.348;2022-10-01T08:45:45;6.05;;;2.38;;
65581;SDS011;52231;40.090;18.348;2022-10-01T08:53:40;10.80;;;2.53;;
65581;SDS011;52231;40.090;18.348;2022-10-01T08:56:35;7.05;;;1.80;;
65581;SDS011;52231;40.090;18.348;2022-10-01T09:01:56;6.22;;;1.63;;
65581;SDS011;52231;40.090;18.348;2022-10-01T09:04:26;9.25;;;2.05;;
65581;SDS011;52231;40.090;18.348;2022-10-01T09:07:02;6.85;;;1.80;;
65581;SDS011;52231;40.090;18.348;2022-10-01T09:09:44;6.97;;;1.80;;
65581;SDS011;52231;40.090;18.348;2022-10-01T09:12:23;7.25;;;1.80;;
65581;SDS011;52231;40.090;18.348;2022-10-01T09:15:25;5.57;;;1.42;;
65581;SDS011;52231;40.090;18.348;2022-10-01T09:20:54;8.25;;;1.67;;
65581;SDS011;52231;40.090;18.348;2022-10-01T09:23:28;8.63;;;2.33;;
65581;SDS011;52231;40.090;18.348;2022-10-01T09:25:58;8.65;;;1.60;;
65581;SDS011;52231;40.090;18.348;2022-10-01T09:28:30;4.30;;;1.55;;
65581;SDS011;52231;40.090;18.348;2022-10-01T09:31:17;4.47;;;1.65;;
65581;SDS011;52231;40.090;18.348;2022-10-01T09:34:08;4.70;;;1.63;;
65581;SDS011;52231;40.090;18.348;2022-10-01T09:39:28;3.97;;;1.40;;
65581;SDS011;52231;40.090;18.348;2022-10-01T09:42:08;6.78;;;1.70;;
65581;SDS011;52231;40.090;18.348;2022-10-01T09:44:36;7.60;;;1.52;;
65581;SDS011;52231;40.090;18.348;2022-10-01T09:47:13;6.35;;;1.40;;
65581;SDS011;52231;40.090;18.348;2022-10-01T09:49:47;8.32;;;1.55;;
65581;SDS011;52231;40.090;18.348;2022-10-01T09:52:18;8.70;;;1.70;;
65581;SDS011;52231;40.090;18.348;2022-10-01T09:58:07;6.65;;;1.30;;
65581;SDS011;52231;40.090;18.348;2022-10-01T10:00:40;5.72;;;1.58;;
65581;SDS011;52231;40.090;18.348;2022-10-01T10:03:09;8.93;;;1.70;;
65581;SDS011;52231;40.090;18.348;2022-10-01T10:05:48;7.20;;;1.70;;
65581;SDS011;52231;40.090;18.348;2022-10-01T10:08:29;8.45;;;1.70;;
65581;SDS011;52231;40.090;18.348;2022-10-01T10:11:08;6.53;;;1.67;;
65581;SDS011;52231;40.090;18.348;2022-10-01T10:13:38;8.50;;;1.80;;
65581;SDS011;52231;40.090;18.348;2022-10-01T10:16:14;3.78;;;1.52;;
65581;SDS011;52231;40.090;18.348;2022-10-01T10:18:48;5.65;;;1.50;;
65581;SDS011;52231;40.090;18.348;2022-10-01T10:21:31;7.05;;;1.27;;
65581;SDS011;52231;40.090;18.348;2022-10-01T10:24:02;7.10;;;1.60;;
65581;SDS011;52231;40.090;18.348;2022-10-01T10:26:36;11.27;;;1.73;;
65581;SDS011;52231;40.090;18.348;2022-10-01T10:29:06;8.27;;;1.70;;
65581;SDS011;52231;40.090;18.348;2022-10-01T10:31:50;8.85;;;1.50;;
65581;SDS011;52231;40.090;18.348;2022-10-01T10:36:59;10.45;;;2.60;;
65581;SDS011;52231;40.090;18.348;2022-10-01T10:39:33;10.98;;;2.58;;
65581;SDS011;52231;40.090;18.348;2022-10-01T10:42:22;10.73;;;2.00;;
65581;SDS011;52231;40.090;18.348;2022-10-01T10:44:53;13.00;;;2.30;;
65581;SDS011;52231;40.090;18.348;2022-10-01T10:47:23;8.52;;;1.75;;
65581;SDS011;52231;40.090;18.348;2022-10-01T10:49:58;10.20;;;1.73;;
65581;SDS011;52231;40.090;18.348;2022-10-01T10:52:31;10.35;;;1.80;;
65581;SDS011;52231;40.090;18.348;2022-10-01T10:55:21;6.72;;;1.45;;
65581;SDS011;52231;40.090;18.348;2022-10-01T10:58:10;5.13;;;1.55;;
65581;SDS011;52231;40.090;18.348;2022-10-01T11:00:47;7.13;;;1.60;;
65581;SDS011;52231;40.090;18.348;2022-10-01T11:03:18;10.35;;;1.73;;
65581;SDS011;52231;40.090;18.348;2022-10-01T11:05:48;9.10;;;1.90;;
65581;SDS011;52231;40.090;18.348;2022-10-01T11:08:23;9.88;;;2.03;;
65581;SDS011;52231;40.090;18.348;2022-10-01T11:16:37;6.88;;;1.88;;
65581;SDS011;52231;40.090;18.348;2022-10-01T11:25:12;7.43;;;1.80;;
65581;SDS011;52231;40.090;18.348;2022-10-01T11:41:47;9.32;;;2.03;;
65581;SDS011;52231;40.090;18.348;2022-10-01T11:44:31;12.10;;;2.20;;
65581;SDS011;52231;40.090;18.348;2022-10-01T11:52:25;11.02;;;2.10;;
65581;SDS011;52231;40.090;18.348;2022-10-01T11:58:28;12.60;;;2.72;;
65581;SDS011;52231;40.090;18.348;2022-10-01T12:01:18;13.40;;;2.00;;
65581;SDS011;52231;40.090;18.348;2022-10-01T12:06:37;10.93;;;2.03;;
65581;SDS011;52231;40.090;18.348;2022-10-01T12:12:18;10.48;;;2.50;;
65581;SDS011;52231;40.090;18.348;2022-10-01T12:17:51;13.48;;;2.58;;
65581;SDS011;52231;40.090;18.348;2022-10-01T12:20:30;11.20;;;2.92;;
65581;SDS011;52231;40.090;18.348;2022-10-01T12:23:04;25.67;;;10.45;;
65581;SDS011;52231;40.090;18.348;2022-10-01T12:28:32;11.65;;;2.30;;
65581;SDS011;52231;40.090;18.348;2022-10-01T12:37:08;12.38;;;2.47;;
65581;SDS011;52231;40.090;18.348;2022-10-01T12:39:58;11.75;;;2.30;;
65581;SDS011;52231;40.090;18.348;2022-10-01T12:48:34;12.57;;;2.58;;
65581;SDS011;52231;40.090;18.348;2022-10-01T13:05:18;10.13;;;2.22;;
65581;SDS011;52231;40.090;18.348;2022-10-01T13:13:29;9.90;;;2.17;;
65581;SDS011;52231;40.090;18.348;2022-10-01T13:19:26;13.55;;;2.40;;
65581;SDS011;52231;40.090;18.348;2022-10-01T13:30:32;14.25;;;2.83;;
65581;SDS011;52231;40.090;18.348;2022-10-01T13:33:23;10.00;;;2.55;;
65581;SDS011;52231;40.090;18.348;2022-10-01T13:35:57;14.70;;;2.30;;
65581;SDS011;52231;40.090;18.348;2022-10-01T13:38:39;8.38;;;1.98;;
65581;SDS011;52231;40.090;18.348;2022-10-01T13:41:17;8.20;;;2.00;;
65581;SDS011;52231;40.090;18.348;2022-10-01T13:44:42;11.68;;;2.40;;
65581;SDS011;52231;40.090;18.348;2022-10-01T13:47:03;8.98;;;2.35;;
65581;SDS011;52231;40.090;18.348;2022-10-01T13:49:35;17.23;;;2.60;;
65581;SDS011;52231;40.090;18.348;2022-10-01T13:52:04;14.18;;;2.33;;
65581;SDS011;52231;40.090;18.348;2022-10-01T13:54:36;11.75;;;2.10;;
65581;SDS011;52231;40.090;18.348;2022-10-01T14:02:56;9.10;;;2.28;;
65581;SDS011;52231;40.090;18.348;2022-10-01T14:05:44;11.70;;;2.45;;
65581;SDS011;52231;40.090;18.348;2022-10-01T14:08:27;8.57;;;2.33;;
65581;SDS011;52231;40.090;18.348;2022-10-01T14:11:13;7.28;;;2.15;;
65581;SDS011;52231;40.090;18.348;2022-10-01T14:14:08;10.68;;;2.22;;
65581;SDS011;52231;40.090;18.348;2022-10-01T14:17:08;11.15;;;2.33;;
65581;SDS011;52231;40.090;18.348;2022-10-01T14:19:37;11.68;;;2.28;;
65581;SDS011;52231;40.090;18.348;2022-10-01T14:36:46;9.80;;;2.55;;
65581;SDS011;52231;40.090;18.348;2022-10-01T14:39:16;10.10;;;1.98;;
65581;SDS011;52231;40.090;18.348;2022-10-01T14:42:09;10.35;;;2.20;;
65581;SDS011;52231;40.090;18.348;2022-10-01T14:44:44;10.48;;;2.17;;
65581;SDS011;52231;40.090;18.348;2022-10-01T14:47:35;7.90;;;1.70;;
65581;SDS011;52231;40.090;18.348;2022-10-01T14:50:11;8.88;;;2.10;;
65581;SDS011;52231;40.090;18.348;2022-10-01T14:52:47;9.20;;;2.22;;
65581;SDS011;52231;40.090;18.348;2022-10-01T14:55:21;7.38;;;2.22;;
65581;SDS011;52231;40.090;18.348;2022-10-01T14:57:52;10.27;;;2.20;;
65581;SDS011;52231;40.090;18.348;2022-10-01T15:00:23;7.93;;;1.90;;
65581;SDS011;52231;40.090;18.348;2022-10-01T15:03:12;9.43;;;2.00;;
65581;SDS011;52231;40.090;18.348;2022-10-01T15:05:44;6.90;;;2.22;;
65581;SDS011;52231;40.090;18.348;2022-10-01T15:08:37;10.35;;;2.33;;
65581;SDS011;52231;40.090;18.348;2022-10-01T15:11:11;8.95;;;2.13;;
65581;SDS011;52231;40.090;18.348;2022-10-01T15:13:51;9.95;;;2.42;;
65581;SDS011;52231;40.090;18.348;2022-10-01T15:19:13;8.38;;;2.13;;
65581;SDS011;52231;40.090;18.348;2022-10-01T15:21:48;6.55;;;1.98;;
65581;SDS011;52231;40.090;18.348;2022-10-01T15:24:35;9.88;;;2.63;;
65581;SDS011;52231;40.090;18.348;2022-10-01T15:27:08;7.63;;;2.22;;
65581;SDS011;52231;40.090;18.348;2022-10-01T15:29:40;10.95;;;2.55;;
65581;SDS011;52231;40.090;18.348;2022-10-01T15:32:11;9.75;;;2.38;;
65581;SDS011;52231;40.090;18.348;2022-10-01T15:37:16;8.60;;;2.65;;
65581;SDS011;52231;40.090;18.348;2022-10-01T15:40:05;14.40;;;2.70;;
65581;SDS011;52231;40.090;18.348;2022-10-01T15:46:36;6.97;;;2.38;;
65581;SDS011;52231;40.090;18.348;2022-10-01T15:48:44;11.05;;;2.33;;
65581;SDS011;52231;40.090;18.348;2022-10-01T15:53:47;9.18;;;2.75;;
65581;SDS011;52231;40.090;18.348;2022-10-01T15:56:16;7.32;;;1.95;;
65581;SDS011;52231;40.090;18.348;2022-10-01T15:58:49;8.52;;;2.35;;
65581;SDS011;52231;40.090;18.348;2022-10-01T16:01:21;10.90;;;2.53;;
65581;SDS011;52231;40.090;18.348;2022-10-01T16:03:55;7.57;;;2.28;;
65581;SDS011;52231;40.090;18.348;2022-10-01T16:11:53;6.90;;;1.95;;
65581;SDS011;52231;40.090;18.348;2022-10-01T16:14:42;7.72;;;2.63;;
65581;SDS011;52231;40.090;18.348;2022-10-01T16:17:37;6.10;;;1.85;;
65581;SDS011;52231;40.090;18.348;2022-10-01T16:22:43;6.57;;;2.00;;
65581;SDS011;52231;40.090;18.348;2022-10-01T16:27:50;7.85;;;2.40;;
65581;SDS011;52231;40.090;18.348;2022-10-01T16:30:28;9.80;;;2.67;;
65581;SDS011;52231;40.090;18.348;2022-10-01T16:32:58;12.55;;;3.08;;
65581;SDS011;52231;40.090;18.348;2022-10-01T16:35:32;8.40;;;2.90;;
65581;SDS011;52231;40.090;18.348;2022-10-01T16:38:07;8.68;;;2.72;;
65581;SDS011;52231;40.090;18.348;2022-10-01T16:40:36;10.73;;;3.17;;
65581;SDS011;52231;40.090;18.348;2022-10-01T16:43:15;9.20;;;2.70;;
65581;SDS011;52231;40.090;18.348;2022-10-01T16:45:47;7.30;;;2.60;;
65581;SDS011;52231;40.090;18.348;2022-10-01T16:48:17;8.50;;;2.53;;
65581;SDS011;52231;40.090;18.348;2022-10-01T16:50:47;7.50;;;2.53;;
65581;SDS011;52231;40.090;18.348;2022-10-01T16:53:16;10.25;;;2.25;;
65581;SDS011;52231;40.090;18.348;2022-10-01T16:55:45;10.88;;;2.28;;
65581;SDS011;52231;40.090;18.348;2022-10-01T16:58:14;7.32;;;2.28;;
65581;SDS011;52231;40.090;18.348;2022-10-01T17:00:42;7.28;;;2.05;;
65581;SDS011;52231;40.090;18.348;2022-10-01T17:03:14;6.57;;;2.05;;
65581;SDS011;52231;40.090;18.348;2022-10-01T17:05:45;10.00;;;1.98;;
65581;SDS011;52231;40.090;18.348;2022-10-01T17:08:13;6.95;;;1.85;;
65581;SDS011;52231;40.090;18.348;2022-10-01T17:10:49;9.85;;;2.00;;
65581;SDS011;52231;40.090;18.348;2022-10-01T17:13:28;5.97;;;1.95;;
65581;SDS011;52231;40.090;18.348;2022-10-01T17:15:59;9.50;;;2.80;;
65581;SDS011;52231;40.090;18.348;2022-10-01T17:18:28;11.50;;;3.33;;
65581;SDS011;52231;40.090;18.348;2022-10-01T17:20:56;9.35;;;2.47;;
65581;SDS011;52231;40.090;18.348;2022-10-01T17:23:26;8.13;;;2.10;;
65581;SDS011;52231;40.090;18.348;2022-10-01T17:25:54;9.30;;;2.10;;
65581;SDS011;52231;40.090;18.348;2022-10-01T17:28:22;8.38;;;2.20;;
65581;SDS011;52231;40.090;18.348;2022-10-01T17:30:50;12.18;;;2.45;;
65581;SDS011;52231;40.090;18.348;2022-10-01T17:33:19;9.82;;;2.72;;
65581;SDS011;52231;40.090;18.348;2022-10-01T17:35:49;10.27;;;2.85;;
65581;SDS011;52231;40.090;18.348;2022-10-01T17:38:22;10.13;;;2.22;;
65581;SDS011;52231;40.090;18.348;2022-10-01T17:40:50;7.88;;;2.28;;
65581;SDS011;52231;40.090;18.348;2022-10-01T17:43:22;8.73;;;2.33;;
65581;SDS011;52231;40.090;18.348;2022-10-01T17:45:54;7.38;;;2.42;;
65581;SDS011;52231;40.090;18.348;2022-10-01T17:48:24;8.00;;;2.05;;
65581;SDS011;52231;40.090;18.348;2022-10-01T17:51:00;10.27;;;2.65;;
65581;SDS011;52231;40.090;18.348;2022-10-01T17:53:33;14.30;;;2.78;;
65581;SDS011;52231;40.090;18.348;2022-10-01T17:56:09;12.10;;;2.72;;
65581;SDS011;52231;40.090;18.348;2022-10-01T17:58:59;14.43;;;2.50;;
65581;SDS011;52231;40.090;18.348;2022-10-01T18:03:55;13.55;;;3.25;;
65581;SDS011;52231;40.090;18.348;2022-10-01T18:06:24;13.23;;;2.70;;
65581;SDS011;52231;40.090;18.348;2022-10-01T18:08:52;16.27;;;2.88;;
65581;SDS011;52231;40.090;18.348;2022-10-01T18:11:25;12.43;;;2.60;;
65581;SDS011;52231;40.090;18.348;2022-10-01T18:13:55;11.85;;;2.53;;
65581;SDS011;52231;40.090;18.348;2022-10-01T18:16:24;11.40;;;2.33;;
65581;SDS011;52231;40.090;18.348;2022-10-01T18:18:54;15.55;;;2.40;;
65581;SDS011;52231;40.090;18.348;2022-10-01T18:21:43;16.42;;;2.75;;
65581;SDS011;52231;40.090;18.348;2022-10-01T18:24:11;12.65;;;2.72;;